createdAt,value
2019-05-01T00:00:22.214Z,10.73
2019-05-01T00:02:58.682Z,10.97
2019-05-01T00:05:29.116Z,11.00
2019-05-01T00:07:57.768Z,10.50
2019-05-01T00:10:27.339Z,10.30
2019-05-01T00:12:56.269Z,10.10
2019-05-01T00:15:26.578Z,10.03
2019-05-01T00:17:55.162Z,10.20
2019-05-01T00:20:23.890Z,10.53
2019-05-01T00:22:52.623Z,11.17
2019-05-01T00:25:21.189Z,10.57
2019-05-01T00:27:49.841Z,11.80
2019-05-01T00:30:29.809Z,11.63
2019-05-01T00:32:50.787Z,11.53
2019-05-01T00:35:19.663Z,11.60
2019-05-01T00:37:48.295Z,10.57
2019-05-01T00:40:17.000Z,10.20
2019-05-01T00:42:45.658Z,10.13
2019-05-01T00:45:14.485Z,10.93
2019-05-01T00:47:43.322Z,10.60
2019-05-01T00:50:12.597Z,10.77
2019-05-01T00:52:41.418Z,10.97
2019-05-01T00:55:28.832Z,11.83
2019-05-01T00:58:02.243Z,11.20
2019-05-01T01:00:42.887Z,11.63
2019-05-01T01:03:05.823Z,10.90
2019-05-01T01:05:34.478Z,11.60
2019-05-01T01:08:03.499Z,11.07
2019-05-01T01:10:32.582Z,11.73
2019-05-01T01:13:01.485Z,11.30
2019-05-01T01:15:30.111Z,11.27
2019-05-01T01:17:58.703Z,11.20
2019-05-01T01:20:27.290Z,11.07
2019-05-01T01:22:56.435Z,11.53
2019-05-01T01:25:25.160Z,11.67
2019-05-01T01:27:54.140Z,11.97
2019-05-01T01:30:22.848Z,11.53
2019-05-01T01:32:51.502Z,11.77
2019-05-01T01:35:20.610Z,12.70
2019-05-01T01:37:49.169Z,12.23
2019-05-01T01:40:18.234Z,12.63
2019-05-01T01:42:48.670Z,13.30
2019-05-01T01:45:28.418Z,13.10
2019-05-01T01:48:10.527Z,12.67
2019-05-01T01:50:41.714Z,12.50
2019-05-01T01:53:12.109Z,12.60
2019-05-01T01:55:41.242Z,12.50
2019-05-01T01:58:10.341Z,13.47
2019-05-01T02:00:53.451Z,14.00
2019-05-01T02:03:23.723Z,13.70
2019-05-01T02:05:52.494Z,13.50
2019-05-01T02:08:21.403Z,13.73
2019-05-01T02:10:50.243Z,13.23
2019-05-01T02:13:18.938Z,14.37
2019-05-01T02:15:47.665Z,14.80
2019-05-01T02:18:16.754Z,13.33
2019-05-01T02:20:45.751Z,13.93
2019-05-01T02:23:14.454Z,14.80
2019-05-01T02:25:44.264Z,14.70
2019-05-01T02:28:30.181Z,14.40
2019-05-01T02:31:28.205Z,14.27
2019-05-01T02:33:51.191Z,15.17
2019-05-01T02:36:21.375Z,14.57
2019-05-01T02:38:51.093Z,14.90
2019-05-01T02:41:20.663Z,15.47
2019-05-01T02:43:52.041Z,15.13
2019-05-01T02:46:22.852Z,14.53
2019-05-01T02:49:06.462Z,15.80
2019-05-01T02:51:38.382Z,15.10
2019-05-01T02:54:08.485Z,14.67
2019-05-01T02:56:40.229Z,16.47
2019-05-01T02:59:10.014Z,14.67
2019-05-01T03:01:47.391Z,15.00
2019-05-01T03:04:10.320Z,16.73
2019-05-01T03:06:39.910Z,14.60
2019-05-01T03:09:08.617Z,15.13
2019-05-01T03:11:40.188Z,15.27
2019-05-01T03:14:11.859Z,14.80
2019-05-01T03:16:41.090Z,15.50
2019-05-01T03:19:28.926Z,15.60
2019-05-01T03:21:59.483Z,15.73
2019-05-01T03:24:29.064Z,15.33
2019-05-01T03:26:59.086Z,15.50
2019-05-01T03:29:28.219Z,15.10
2019-05-01T03:32:15.893Z,14.87
2019-05-01T03:34:28.734Z,14.83
2019-05-01T03:36:57.727Z,14.50
2019-05-01T03:39:27.631Z,15.07
2019-05-01T03:41:56.670Z,15.77
2019-05-01T03:44:25.467Z,15.10
2019-05-01T03:46:54.367Z,14.30
2019-05-01T03:49:23.095Z,15.77
2019-05-01T03:51:51.997Z,15.80
2019-05-01T03:54:21.319Z,15.47
2019-05-01T03:56:50.314Z,15.30
2019-05-01T03:59:19.437Z,14.70
2019-05-01T04:02:05.543Z,14.77
2019-05-01T04:04:34.867Z,15.70
2019-05-01T04:07:03.659Z,15.97
2019-05-01T04:09:32.946Z,14.43
2019-05-01T04:12:02.236Z,15.13
2019-05-01T04:14:31.623Z,14.87
2019-05-01T04:17:02.490Z,14.93
2019-05-01T04:19:31.215Z,14.23
2019-05-01T04:22:01.654Z,14.70
2019-05-01T04:24:30.347Z,14.23
2019-05-01T04:26:59.079Z,14.60
2019-05-01T04:29:52.804Z,15.30
2019-05-01T04:32:23.275Z,15.07
2019-05-01T04:34:54.014Z,15.17
2019-05-01T04:37:24.556Z,15.10
2019-05-01T04:39:53.283Z,14.77
2019-05-01T04:42:22.159Z,15.73
2019-05-01T04:44:50.859Z,14.93
2019-05-01T04:47:19.893Z,15.33
2019-05-01T04:49:48.635Z,15.90
2019-05-01T04:52:17.476Z,15.00
2019-05-01T04:54:46.455Z,15.73
2019-05-01T04:57:15.582Z,15.03
2019-05-01T04:59:44.783Z,16.13
2019-05-01T05:02:15.386Z,14.23
2019-05-01T05:04:44.218Z,15.57
2019-05-01T05:07:13.182Z,14.87
2019-05-01T05:09:48.056Z,15.33
2019-05-01T05:12:25.582Z,14.90
2019-05-01T05:15:05.147Z,16.07
2019-05-01T05:17:33.946Z,15.90
2019-05-01T05:20:03.478Z,15.10
2019-05-01T05:22:32.164Z,15.73
2019-05-01T05:25:01.433Z,15.67
2019-05-01T05:27:30.804Z,15.90
2019-05-01T05:29:59.726Z,15.00
2019-05-01T05:32:30.229Z,15.57
2019-05-01T05:35:00.763Z,15.53
2019-05-01T05:37:33.026Z,15.93
2019-05-01T05:40:02.234Z,15.07
2019-05-01T05:42:31.620Z,16.00
2019-05-01T05:45:00.712Z,16.47
2019-05-01T05:47:30.047Z,16.27
2019-05-01T05:49:59.118Z,15.80
2019-05-01T05:52:30.990Z,16.60
2019-05-01T05:55:08.630Z,15.60
2019-05-01T05:57:39.522Z,15.93
2019-05-01T06:00:12.816Z,16.47
2019-05-01T06:02:48.159Z,17.83
2019-05-01T06:05:21.470Z,17.93
2019-05-01T06:08:12.847Z,17.80
2019-05-01T06:11:03.239Z,20.47
2019-05-01T06:13:40.734Z,18.97
2019-05-01T06:16:17.486Z,21.67
2019-05-01T06:18:57.167Z,20.40
2019-05-01T06:21:39.635Z,21.73
2019-05-01T06:24:19.434Z,21.63
2019-05-01T06:26:48.531Z,21.03
2019-05-01T06:29:17.266Z,21.83
2019-05-01T06:31:45.994Z,22.60
2019-05-01T06:34:14.827Z,22.03
2019-05-01T06:36:44.374Z,20.70
2019-05-01T06:39:14.102Z,19.40
2019-05-01T06:41:44.121Z,21.67
2019-05-01T06:44:15.343Z,21.33
2019-05-01T06:47:03.304Z,20.07
2019-05-01T06:49:41.283Z,19.40
2019-05-01T06:52:11.758Z,20.80
2019-05-01T06:54:40.862Z,21.53
2019-05-01T06:57:09.567Z,21.07
2019-05-01T06:59:40.462Z,21.47
2019-05-01T07:02:11.762Z,20.90
2019-05-01T07:04:41.735Z,20.03
2019-05-01T07:07:24.700Z,19.97
2019-05-01T07:09:44.282Z,18.97
2019-05-01T07:12:15.603Z,18.43
2019-05-01T07:14:47.127Z,19.93
2019-05-01T07:17:15.466Z,20.73
2019-05-01T07:20:02.106Z,19.93
2019-05-01T07:22:31.299Z,20.37
2019-05-01T07:25:04.142Z,20.43
2019-05-01T07:27:31.183Z,20.48
2019-05-01T07:30:01.561Z,21.10
2019-05-01T07:32:30.834Z,22.00
2019-05-01T07:35:01.929Z,22.60
2019-05-01T07:37:29.939Z,23.00
2019-05-01T07:39:58.741Z,21.65
2019-05-01T07:42:29.478Z,22.13
2019-05-01T07:45:11.330Z,22.82
2019-05-01T07:47:41.968Z,20.90
2019-05-01T07:50:12.402Z,20.75
2019-05-01T07:52:41.978Z,20.70
2019-05-01T07:55:13.184Z,20.90
2019-05-01T07:57:44.445Z,20.00
2019-05-01T08:00:14.215Z,20.52
2019-05-01T08:02:43.219Z,20.43
2019-05-01T08:05:11.961Z,19.30
2019-05-01T08:07:40.605Z,19.02
2019-05-01T08:10:09.611Z,18.42
2019-05-01T08:12:38.203Z,18.37
2019-05-01T08:15:07.102Z,19.45
2019-05-01T08:17:37.398Z,17.45
2019-05-01T08:20:26.891Z,19.92
2019-05-01T08:22:55.550Z,18.52
2019-05-01T08:25:24.210Z,18.80
2019-05-01T08:28:03.894Z,18.85
2019-05-01T08:30:34.498Z,18.15
2019-05-01T08:35:44.970Z,18.35
2019-05-01T08:38:13.640Z,18.10
2019-05-01T08:40:42.618Z,20.40
2019-05-01T08:43:13.727Z,19.77
2019-05-01T08:45:49.098Z,20.20
2019-05-01T08:48:19.738Z,20.12
2019-05-01T08:50:48.472Z,18.65
2019-05-01T08:53:18.007Z,19.60
2019-05-01T08:55:47.514Z,19.98
2019-05-01T08:58:16.218Z,18.65
2019-05-01T09:00:44.947Z,19.60
2019-05-01T09:03:18.422Z,19.85
2019-05-01T09:05:44.078Z,20.92
2019-05-01T09:08:13.003Z,20.62
2019-05-01T09:10:41.894Z,21.37
2019-05-01T09:13:10.887Z,20.27
2019-05-01T09:15:39.454Z,19.62
2019-05-01T09:18:08.014Z,21.37
2019-05-01T09:20:38.522Z,20.72
2019-05-01T09:23:09.535Z,20.55
2019-05-01T09:25:42.158Z,21.60
2019-05-01T09:28:12.467Z,18.85
2019-05-01T09:30:45.835Z,21.33
2019-05-01T09:33:14.470Z,19.50
2019-05-01T09:35:45.458Z,19.00
2019-05-01T09:38:13.414Z,20.23
2019-05-01T09:40:42.154Z,19.27
2019-05-01T09:43:10.786Z,18.73
2019-05-01T09:45:39.526Z,17.25
2019-05-01T09:48:09.041Z,16.35
2019-05-01T09:50:39.510Z,16.80
2019-05-01T09:53:29.720Z,17.05
2019-05-01T09:56:09.146Z,15.85
2019-05-01T09:58:37.886Z,15.88
2019-05-01T10:01:06.904Z,15.45
2019-05-01T10:03:35.494Z,15.35
2019-05-01T10:06:04.327Z,13.40
2019-05-01T10:08:34.770Z,13.28
2019-05-01T10:11:05.101Z,11.45
2019-05-01T10:13:35.043Z,10.90
2019-05-01T10:16:04.131Z,9.83
2019-05-01T10:18:32.754Z,7.97
2019-05-01T10:21:01.311Z,7.53
2019-05-01T10:23:29.973Z,8.55
2019-05-01T10:26:00.178Z,7.47
2019-05-01T10:28:30.835Z,9.43
2019-05-01T10:31:07.060Z,10.85
2019-05-01T10:33:44.291Z,10.80
2019-05-01T10:36:31.208Z,12.85
2019-05-01T10:38:59.786Z,12.82
2019-05-01T10:41:28.494Z,13.20
2019-05-01T10:43:57.161Z,15.20
2019-05-01T10:46:25.730Z,13.00
2019-05-01T10:48:57.194Z,12.73
2019-05-01T10:51:24.625Z,12.18
2019-05-01T10:53:53.527Z,14.25
2019-05-01T10:56:22.530Z,16.00
2019-05-01T10:58:51.514Z,18.00
2019-05-01T11:01:22.142Z,15.60
2019-05-01T11:03:50.732Z,16.23
2019-05-01T11:06:19.566Z,14.63
2019-05-01T11:08:48.275Z,14.47
2019-05-01T11:11:16.871Z,13.22
2019-05-01T11:13:45.466Z,13.80
2019-05-01T11:16:14.246Z,14.18
2019-05-01T11:18:42.934Z,12.40
2019-05-01T11:21:11.630Z,13.15
2019-05-01T11:23:40.722Z,15.43
2019-05-01T11:26:09.610Z,16.20
2019-05-01T11:28:38.509Z,15.48
2019-05-01T11:31:08.734Z,15.72
2019-05-01T11:33:57.437Z,16.40
2019-05-01T11:36:37.522Z,14.70
2019-05-01T11:39:18.607Z,13.55
2019-05-01T11:41:48.910Z,14.98
2019-05-01T11:44:17.525Z,15.18
2019-05-01T11:46:46.097Z,13.88
2019-05-01T11:49:14.726Z,14.35
2019-05-01T11:51:43.442Z,14.03
2019-05-01T11:54:12.363Z,13.22
2019-05-01T11:56:41.062Z,14.65
2019-05-01T11:59:09.630Z,14.05
2019-05-01T12:01:38.190Z,12.80
2019-05-01T12:04:06.787Z,12.97
2019-05-01T12:06:35.451Z,13.27
2019-05-01T12:09:06.175Z,13.87
2019-05-01T12:11:36.622Z,12.53
2019-05-01T12:14:05.894Z,22.30
2019-05-01T12:16:54.531Z,69.57
2019-05-01T12:19:30.994Z,21.97
2019-05-01T12:21:59.646Z,24.93
2019-05-01T12:24:28.248Z,14.43
2019-05-01T12:26:56.979Z,21.57
2019-05-01T12:29:25.899Z,13.37
2019-05-01T12:31:54.466Z,12.17
2019-05-01T12:34:23.322Z,10.83
2019-05-01T12:36:53.591Z,13.73
2019-05-01T12:39:22.591Z,20.03
2019-05-01T12:41:58.779Z,18.10
2019-05-01T12:44:27.339Z,10.27
2019-05-01T12:46:57.870Z,10.37
2019-05-01T12:49:26.747Z,19.60
2019-05-01T12:52:09.621Z,15.60
2019-05-01T12:54:44.226Z,11.17
2019-05-01T12:57:14.034Z,11.50
2019-05-01T12:59:42.627Z,10.20
2019-05-01T13:02:11.197Z,13.40
2019-05-01T13:04:39.915Z,10.30
2019-05-01T13:07:08.618Z,8.73
2019-05-01T13:09:37.211Z,8.43
2019-05-01T13:12:05.915Z,10.10
2019-05-01T13:14:34.468Z,9.47
2019-05-01T13:17:03.055Z,8.03
2019-05-01T13:19:31.782Z,8.43
2019-05-01T13:22:00.374Z,12.13
2019-05-01T13:24:29.000Z,10.77
2019-05-01T13:27:02.114Z,8.60
2019-05-01T13:29:32.387Z,8.40
2019-05-01T13:32:21.340Z,8.40
2019-05-01T13:34:49.999Z,7.53
2019-05-01T13:37:18.694Z,7.53
2019-05-01T13:39:47.659Z,8.07
2019-05-01T13:42:16.332Z,10.03
2019-05-01T13:44:44.894Z,6.87
2019-05-01T13:47:13.466Z,7.97
2019-05-01T13:49:42.402Z,7.77
2019-05-01T13:52:11.098Z,6.97
2019-05-01T13:54:39.978Z,7.27
2019-05-01T13:57:08.846Z,7.43
2019-05-01T13:59:37.510Z,7.93
2019-05-01T14:02:07.966Z,8.07
2019-05-01T14:04:36.774Z,7.17
2019-05-01T14:07:15.857Z,7.30
2019-05-01T14:09:35.911Z,6.80
2019-05-01T14:12:05.073Z,7.20
2019-05-01T14:14:33.630Z,7.30
2019-05-01T14:17:02.294Z,6.70
2019-05-01T14:19:31.330Z,7.13
2019-05-01T14:22:18.354Z,6.93
2019-05-01T14:24:48.981Z,6.60
2019-05-01T14:27:17.892Z,7.83
2019-05-01T14:29:46.454Z,7.10
2019-05-01T14:32:15.011Z,6.53
2019-05-01T14:34:43.599Z,6.97
2019-05-01T14:37:12.513Z,6.87
2019-05-01T14:39:41.402Z,6.97
2019-05-01T14:42:10.387Z,6.80
2019-05-01T14:44:39.046Z,6.77
2019-05-01T14:47:08.069Z,6.70
2019-05-01T14:49:36.722Z,6.90
2019-05-01T14:52:05.847Z,7.17
2019-05-01T14:54:34.589Z,7.00
2019-05-01T14:57:03.840Z,7.73
2019-05-01T14:59:32.534Z,8.37
2019-05-01T15:02:01.513Z,7.70
2019-05-01T15:04:30.080Z,7.47
2019-05-01T15:06:59.083Z,6.87
2019-05-01T15:09:27.979Z,7.50
2019-05-01T15:11:57.652Z,7.10
2019-05-01T15:14:27.870Z,6.50
2019-05-01T15:16:58.231Z,6.50
2019-05-01T15:19:28.759Z,6.57
2019-05-01T15:21:57.351Z,6.93
2019-05-01T15:24:26.230Z,6.83
2019-05-01T15:26:54.835Z,6.73
2019-05-01T15:29:23.579Z,7.13
2019-05-01T15:31:52.263Z,6.97
2019-05-01T15:34:20.846Z,7.10
2019-05-01T15:36:49.483Z,7.27
2019-05-01T15:39:20.186Z,7.10
2019-05-01T15:42:06.862Z,6.63
2019-05-01T15:44:37.117Z,7.53
2019-05-01T15:47:05.885Z,7.80
2019-05-01T15:49:34.985Z,7.13
2019-05-01T15:52:03.993Z,6.93
2019-05-01T15:54:32.692Z,7.37
2019-05-01T15:57:01.666Z,7.50
2019-05-01T15:59:30.330Z,7.00
2019-05-01T16:01:58.882Z,7.23
2019-05-01T16:04:27.649Z,6.90
2019-05-01T16:06:56.610Z,6.60
2019-05-01T16:09:25.746Z,8.00
2019-05-01T16:12:01.834Z,6.47
2019-05-01T16:14:30.898Z,6.67
2019-05-01T16:16:59.954Z,7.33
2019-05-01T16:19:28.599Z,6.40
2019-05-01T16:21:57.530Z,6.90
2019-05-01T16:24:26.263Z,6.87
2019-05-01T16:26:54.987Z,6.57
2019-05-01T16:29:23.550Z,7.50
2019-05-01T16:31:52.502Z,6.77
2019-05-01T16:34:21.468Z,6.70
2019-05-01T16:36:50.166Z,6.63
2019-05-01T16:39:23.368Z,6.63
2019-05-01T16:41:52.067Z,6.30
2019-05-01T16:44:21.119Z,6.30
2019-05-01T16:46:49.783Z,6.80
2019-05-01T16:49:18.479Z,6.00
2019-05-01T16:51:47.186Z,7.10
2019-05-01T16:54:15.810Z,7.33
2019-05-01T16:56:44.539Z,7.70
2019-05-01T16:59:13.199Z,6.40
2019-05-01T17:01:44.136Z,6.40
2019-05-01T17:04:26.818Z,6.20
2019-05-01T17:07:02.684Z,6.30
2019-05-01T17:09:33.401Z,6.77
2019-05-01T17:12:02.067Z,6.50
2019-05-01T17:14:31.471Z,6.33
2019-05-01T17:17:00.270Z,6.60
2019-05-01T17:19:28.898Z,6.23
2019-05-01T17:21:57.518Z,6.33
2019-05-01T17:24:26.218Z,5.80
2019-05-01T17:26:54.778Z,6.17
2019-05-01T17:29:23.366Z,6.50
2019-05-01T17:31:51.962Z,6.00
2019-05-01T17:34:20.606Z,7.17
2019-05-01T17:36:49.314Z,6.07
2019-05-01T17:39:18.078Z,5.90
2019-05-01T17:41:46.999Z,6.17
2019-05-01T17:44:19.924Z,6.13
2019-05-01T17:46:47.014Z,5.93
2019-05-01T17:49:16.379Z,5.77
2019-05-01T17:51:46.296Z,5.70
2019-05-01T17:54:15.338Z,5.53
2019-05-01T17:56:48.331Z,5.80
2019-05-01T17:59:14.506Z,6.53
2019-05-01T18:01:51.702Z,7.40
2019-05-01T18:04:24.931Z,6.90
2019-05-01T18:06:53.918Z,7.43
2019-05-01T18:09:22.579Z,6.87
2019-05-01T18:11:52.242Z,6.67
2019-05-01T18:14:21.606Z,7.50
2019-05-01T18:16:50.239Z,8.07
2019-05-01T18:19:19.280Z,7.47
2019-05-01T18:21:51.846Z,9.47
2019-05-01T18:24:33.911Z,9.73
2019-05-01T18:27:04.098Z,8.40
2019-05-01T18:29:46.184Z,8.83
2019-05-01T18:32:16.646Z,9.47
2019-05-01T18:34:45.279Z,8.47
2019-05-01T18:37:21.790Z,9.30
2019-05-01T18:39:50.958Z,8.50
2019-05-01T18:42:19.549Z,8.30
2019-05-01T18:44:48.919Z,8.17
2019-05-01T18:47:17.833Z,9.07
2019-05-01T18:49:46.566Z,8.90
2019-05-01T18:52:15.562Z,8.87
2019-05-01T18:54:44.131Z,8.33
2019-05-01T18:57:13.147Z,9.53
2019-05-01T18:59:41.951Z,9.43
2019-05-01T19:02:10.656Z,10.50
2019-05-01T19:04:39.606Z,11.80
2019-05-01T19:07:08.215Z,13.13
2019-05-01T19:09:37.147Z,10.00
2019-05-01T19:12:07.587Z,10.63
2019-05-01T19:14:36.258Z,11.10
2019-05-01T19:17:05.215Z,10.80
2019-05-01T19:19:33.947Z,10.50
2019-05-01T19:22:03.131Z,10.50
2019-05-01T19:24:32.538Z,9.17
2019-05-01T19:27:02.303Z,10.10
2019-05-01T19:29:32.104Z,10.47
2019-05-01T19:32:01.766Z,10.43
2019-05-01T19:34:30.433Z,10.10
2019-05-01T19:36:59.440Z,10.50
2019-05-01T19:39:28.175Z,11.43
2019-05-01T19:41:56.838Z,12.17
2019-05-01T19:44:25.729Z,14.77
2019-05-01T19:46:54.371Z,12.83
2019-05-01T19:49:24.509Z,12.37
2019-05-01T19:51:55.528Z,11.07
2019-05-01T19:54:28.185Z,10.90
2019-05-01T19:56:54.270Z,10.73
2019-05-01T19:59:22.934Z,10.93
2019-05-01T20:01:51.564Z,10.63
2019-05-01T20:04:20.212Z,10.80
2019-05-01T20:06:48.881Z,10.90
2019-05-01T20:09:17.780Z,10.43
2019-05-01T20:11:46.421Z,10.33
2019-05-01T20:14:15.150Z,10.10
2019-05-01T20:16:43.718Z,11.03
2019-05-01T20:19:12.331Z,11.27
2019-05-01T20:21:41.875Z,12.83
2019-05-01T20:24:10.903Z,14.17
2019-05-01T20:26:39.562Z,15.10
2019-05-01T20:29:08.128Z,15.97
2019-05-01T20:31:36.725Z,17.40
2019-05-01T20:34:05.367Z,18.60
2019-05-01T20:36:33.959Z,19.30
2019-05-01T20:39:03.574Z,19.13
2019-05-01T20:41:32.197Z,19.03
2019-05-01T20:44:00.794Z,20.67
2019-05-01T20:46:29.786Z,20.90
2019-05-01T20:49:01.399Z,20.33
2019-05-01T20:51:28.779Z,21.87
2019-05-01T20:53:57.447Z,22.97
2019-05-01T20:56:43.303Z,22.53
2019-05-01T20:59:12.262Z,23.37
2019-05-01T21:01:40.914Z,22.83
2019-05-01T21:04:14.310Z,22.80
2019-05-01T21:06:45.685Z,22.00
2019-05-01T21:09:16.210Z,21.80
2019-05-01T21:12:05.095Z,25.63
2019-05-01T21:14:25.528Z,22.03
2019-05-01T21:16:54.124Z,22.47
2019-05-01T21:19:23.375Z,22.60
2019-05-01T21:21:53.657Z,21.77
2019-05-01T21:24:24.039Z,21.50
2019-05-01T21:26:53.432Z,21.87
2019-05-01T21:29:23.933Z,22.00
2019-05-01T21:31:54.158Z,21.97
2019-05-01T21:34:24.430Z,21.30
2019-05-01T21:36:54.033Z,21.47
2019-05-01T21:39:26.321Z,22.20
2019-05-01T21:41:53.375Z,21.87
2019-05-01T21:44:23.379Z,21.97
2019-05-01T21:46:53.481Z,21.03
2019-05-01T21:49:22.906Z,21.43
2019-05-01T21:51:52.995Z,21.93
2019-05-01T21:54:21.970Z,22.50
2019-05-01T21:56:50.820Z,22.27
2019-05-01T21:59:19.715Z,21.47
2019-05-01T22:01:48.600Z,21.30
2019-05-01T22:04:17.327Z,22.53
2019-05-01T22:06:46.841Z,22.20
2019-05-01T22:09:18.064Z,21.30
2019-05-01T22:11:47.198Z,21.87
2019-05-01T22:14:36.066Z,22.23
2019-05-01T22:17:05.799Z,23.23
2019-05-01T22:19:34.471Z,23.77
2019-05-01T22:22:19.975Z,23.87
2019-05-01T22:24:50.181Z,24.77
2019-05-01T22:27:26.256Z,23.43
2019-05-01T22:29:59.241Z,25.93
2019-05-01T22:32:34.068Z,25.67
2019-05-01T22:35:07.990Z,25.00
2019-05-01T22:37:36.653Z,25.37
2019-05-01T22:40:10.427Z,25.77
2019-05-01T22:42:39.082Z,24.60
2019-05-01T22:45:10.666Z,25.20
2019-05-01T22:47:39.228Z,25.80
2019-05-01T22:50:09.447Z,25.97
2019-05-01T22:52:38.079Z,26.87
2019-05-01T22:55:07.388Z,26.77
2019-05-01T22:57:36.695Z,27.30
2019-05-01T23:00:07.767Z,27.60
2019-05-01T23:02:38.106Z,28.70
2019-05-01T23:05:08.706Z,27.80
2019-05-01T23:07:37.455Z,27.97
2019-05-01T23:10:09.249Z,28.50
2019-05-01T23:12:38.119Z,30.90
2019-05-01T23:15:09.892Z,29.47
2019-05-01T23:17:43.174Z,29.77
2019-05-01T23:20:11.890Z,28.83
2019-05-01T23:22:40.746Z,30.17
2019-05-01T23:25:09.774Z,29.37
2019-05-01T23:27:38.412Z,31.43
2019-05-01T23:30:08.287Z,28.13
2019-05-01T23:32:37.327Z,28.23
2019-05-01T23:35:25.340Z,27.33
2019-05-01T23:37:53.906Z,29.13
2019-05-01T23:40:22.615Z,29.03
2019-05-01T23:42:53.481Z,30.67
2019-05-01T23:45:21.758Z,30.90
2019-05-01T23:47:50.521Z,32.27
2019-05-01T23:50:19.918Z,33.53
2019-05-01T23:52:48.822Z,34.13
2019-05-01T23:55:17.559Z,33.77
2019-05-01T23:57:46.194Z,35.17
